Terminal Aerodrome Forecast
Issued by NWS Pittsburgh, PA

Current Version | Previous Version | Graphics & Text | Print | Product List | Glossary On
Versions: 1 2 3 4 5 6 7 8 9 10 11 12 13 14 15 16 17 18 19 20 21 22 23 24 25 26 27 28 29 30 31 32 33
000
FTUS41 KPBZ 160520
TAFPIT
TAF
KPIT 160520Z 1606/1712 21006KT 3SM -SN OVC025
      TEMPO 1606/1610 2SM -SN OVC015
     FM161000 24005KT 6SM -SN OVC008
     FM161800 24007KT 6SM -SN OVC015
     FM170100 28010KT P6SM OVC025=

USA.gov is the U.S. government's official web portal to all federal, state and local government web resources and services.